Wetterdaten: Woche 16.12.02 - 22.12.02 (KW51)
Datum Zeit Temperatur Luftfeuchte Luftdruck Regenmenge Wind Richtung Taupunkt Windchill
16.12.2002 00:00 4.1 C 100 % 1017.0 hPa 0.0 l/m 1.4 km/h (1 Bft) SO 4.1 C 3.8 C
16.12.2002 01:00 3.5 C 99 % 1016.6 hPa 0.0 l/m 6.0 km/h (2 Bft) O-SO 3.3 C 2.1 C
16.12.2002 02:00 3.3 C 98 % 1016.7 hPa 0.0 l/m 3.7 km/h (1 Bft) SO 3.1 C 2.4 C
16.12.2002 03:00 3.4 C 99 % 1016.8 hPa 0.6 l/m 2.4 km/h (1 Bft) O-SO 3.2 C 3.1 C
16.12.2002 04:00 3.5 C 97 % 1017.0 hPa 0.0 l/m 1.5 km/h (1 Bft) O-SO 3.1 C 3.3 C
16.12.2002 05:00 4.7 C 100 % 1017.0 hPa 0.0 l/m 9.1 km/h (2 Bft) SO 4.6 C 2.7 C
16.12.2002 06:00 5.2 C 98 % 1017.0 hPa 0.0 l/m 11.6 km/h (2 Bft) O-SO 5.0 C 2.7 C
16.12.2002 07:00 5.1 C 98 % 1017.0 hPa 0.0 l/m 5.7 km/h (1 Bft) O-SO 4.8 C 3.9 C
16.12.2002 08:00 5.2 C 96 % 1017.1 hPa 0.0 l/m 10.6 km/h (2 Bft) S-SO 4.6 C 3.0 C
16.12.2002 09:00 5.4 C 90 % 1017.9 hPa 0.0 l/m 10.2 km/h (2 Bft) SO 4.0 C 3.3 C
16.12.2002 10:00 5.6 C 89 % 1018.0 hPa 0.0 l/m 3.5 km/h (1 Bft) SO 3.9 C 5.1 C
16.12.2002 11:00 5.9 C 92 % 1017.9 hPa 0.3 l/m 0.8 km/h (0 Bft) S-SO 4.7 C 5.9 C
16.12.2002 12:00 6.5 C 91 % 1017.0 hPa 0.0 l/m 0.0 km/h (0 Bft) N 5.2 C 6.5 C
16.12.2002 13:00 6.6 C 93 % 1016.8 hPa 0.0 l/m 0.0 km/h (0 Bft) N 5.6 C 6.6 C
16.12.2002 14:00 6.6 C 95 % 1015.9 hPa 0.0 l/m 0.0 km/h (0 Bft) N 5.8 C 6.6 C
16.12.2002 15:00 6.3 C 96 % 1015.9 hPa 0.3 l/m 0.0 km/h (0 Bft) N 5.8 C 6.3 C
16.12.2002 16:00 6.1 C 99 % 1015.6 hPa 1.5 l/m 0.0 km/h (0 Bft) N 5.8 C 6.1 C
16.12.2002 17:00 6.0 C 98 % 1014.9 hPa 2.1 l/m 3.0 km/h (1 Bft) SO 5.7 C 5.6 C
16.12.2002 18:00 5.9 C 97 % 1014.9 hPa 1.8 l/m 5.3 km/h (1 Bft) SO 5.4 C 4.9 C
16.12.2002 19:00 6.0 C 98 % 1014.9 hPa 2.1 l/m 0.6 km/h (0 Bft) O-SO 5.7 C 6.0 C
16.12.2002 20:00 5.9 C 98 % 1014.9 hPa 2.4 l/m 0.4 km/h (0 Bft) SO 5.6 C 5.9 C
16.12.2002 21:00 5.8 C 98 % 1014.9 hPa 2.1 l/m 0.3 km/h (0 Bft) SO 5.6 C 5.8 C
16.12.2002 22:00 5.8 C 100 % 1014.9 hPa 2.7 l/m 1.6 km/h (1 Bft) SO 5.7 C 5.6 C
16.12.2002 23:00 5.9 C 100 % 1015.0 hPa 3.0 l/m 0.2 km/h (0 Bft) SO 5.9 C 5.9 C
17.12.2002 00:00 6.1 C 100 % 1014.9 hPa 2.4 l/m 6.1 km/h (2 Bft) W-NW 6.1 C 5.2 C
17.12.2002 01:00 6.2 C 99 % 1014.9 hPa 1.2 l/m 15.9 km/h (3 Bft) W-NW 6.0 C 3.3 C
17.12.2002 02:00 6.3 C 98 % 1015.7 hPa 0.6 l/m 19.8 km/h (4 Bft) NW 5.9 C 2.8 C
17.12.2002 03:00 6.3 C 97 % 1015.9 hPa 0.6 l/m 16.2 km/h (3 Bft) W-NW 5.8 C 3.3 C
17.12.2002 04:00 6.1 C 96 % 1016.6 hPa 0.0 l/m 18.3 km/h (3 Bft) W-NW 5.5 C 2.9 C
17.12.2002 05:00 6.1 C 95 % 1017.0 hPa 0.0 l/m 19.9 km/h (4 Bft) W-NW 5.4 C 2.6 C
17.12.2002 06:00 5.9 C 94 % 1017.0 hPa 0.0 l/m 9.1 km/h (2 Bft) W-NW 5.1 C 4.3 C
17.12.2002 07:00 5.7 C 94 % 1017.0 hPa 0.0 l/m 1.5 km/h (1 Bft) W 4.8 C 5.5 C
17.12.2002 08:00 5.3 C 93 % 1017.7 hPa 0.0 l/m 1.4 km/h (1 Bft) O 4.3 C 5.1 C
17.12.2002 09:00 5.6 C 92 % 1018.0 hPa 0.0 l/m 0.0 km/h (0 Bft) N 4.4 C 5.6 C
17.12.2002 10:00 6.2 C 90 % 1018.0 hPa 0.0 l/m 0.1 km/h (0 Bft) N 4.6 C 6.2 C
17.12.2002 11:00 6.6 C 87 % 1018.0 hPa 0.0 l/m 0.0 km/h (0 Bft) N 4.6 C 6.6 C
17.12.2002 12:00 6.7 C 84 % 1018.0 hPa 0.0 l/m 1.1 km/h (1 Bft) W-NW 4.2 C 6.6 C
17.12.2002 13:00 6.7 C 77 % 1017.3 hPa 0.0 l/m 1.1 km/h (0 Bft) O 2.9 C 6.6 C
17.12.2002 14:00 6.8 C 79 % 1017.0 hPa 0.0 l/m 3.0 km/h (1 Bft) O-SO 3.3 C 6.3 C
17.12.2002 15:00 6.0 C 80 % 1017.0 hPa 0.0 l/m 2.7 km/h (1 Bft) O-SO 2.8 C 5.6 C
17.12.2002 16:00 5.5 C 82 % 1017.0 hPa 0.0 l/m 0.1 km/h (0 Bft) N 2.7 C 5.5 C
17.12.2002 17:00 5.2 C 83 % 1017.0 hPa 0.0 l/m 0.0 km/h (0 Bft) N 2.6 C 5.2 C
17.12.2002 18:00 5.1 C 84 % 1017.0 hPa 0.0 l/m 0.0 km/h (0 Bft) N 2.7 C 5.1 C
17.12.2002 19:00 4.9 C 88 % 1017.6 hPa 0.0 l/m 0.0 km/h (0 Bft) N 3.0 C 4.9 C
17.12.2002 20:00 4.7 C 84 % 1018.0 hPa 0.0 l/m 0.3 km/h (0 Bft) O-NO 2.3 C 4.7 C
17.12.2002 21:00 4.5 C 81 % 1018.0 hPa 0.0 l/m 0.2 km/h (0 Bft) N 1.5 C 4.5 C
17.12.2002 22:00 4.4 C 79 % 1018.0 hPa 0.0 l/m 0.7 km/h (0 Bft) N 1.2 C 4.4 C
17.12.2002 23:00 4.2 C 80 % 1018.1 hPa 0.0 l/m 0.2 km/h (0 Bft) N 1.0 C 4.2 C
18.12.2002 00:00 4.1 C 80 % 1019.0 hPa 0.0 l/m 0.3 km/h (0 Bft) N-NO 0.9 C 4.1 C
18.12.2002 01:00 4.2 C 79 % 1019.0 hPa 0.0 l/m 2.3 km/h (1 Bft) N-NO 0.9 C 3.8 C
18.12.2002 02:00 4.0 C 80 % 1019.4 hPa 0.0 l/m 0.1 km/h (0 Bft) N 0.9 C 4.0 C
18.12.2002 03:00 3.8 C 81 % 1020.1 hPa 0.0 l/m 0.1 km/h (0 Bft) N-NO 0.8 C 3.8 C
18.12.2002 04:00 3.7 C 81 % 1020.1 hPa 0.0 l/m 0.1 km/h (0 Bft) N 0.7 C 3.7 C
18.12.2002 05:00 3.8 C 79 % 1020.1 hPa 0.0 l/m 1.0 km/h (0 Bft) N-NO 0.4 C 3.7 C
18.12.2002 06:00 3.7 C 78 % 1021.1 hPa 0.0 l/m 0.8 km/h (0 Bft) NO 0.2 C 3.6 C
18.12.2002 07:00 3.5 C 79 % 1021.9 hPa 0.0 l/m 1.2 km/h (1 Bft) O 0.2 C 3.3 C
18.12.2002 08:00 3.3 C 79 % 1022.9 hPa 0.0 l/m 1.8 km/h (1 Bft) NO -0.0 C 3.0 C
18.12.2002 09:00 3.4 C 78 % 1023.7 hPa 0.0 l/m 1.2 km/h (1 Bft) NO -0.0 C 3.2 C
18.12.2002 10:00 3.6 C 78 % 1024.2 hPa 0.0 l/m 0.8 km/h (0 Bft) O-NO 0.1 C 3.4 C
18.12.2002 11:00 3.9 C 76 % 1024.2 hPa 0.0 l/m 1.2 km/h (1 Bft) NO 0.0 C 3.7 C
18.12.2002 12:00 4.3 C 72 % 1024.2 hPa 0.0 l/m 3.1 km/h (1 Bft) O -0.3 C 3.7 C
18.12.2002 13:00 5.0 C 66 % 1024.2 hPa 0.0 l/m 11.5 km/h (2 Bft) O -0.8 C 2.8 C
18.12.2002 14:00 4.0 C 69 % 1024.9 hPa 0.0 l/m 17.5 km/h (3 Bft) O-SO -1.2 C 0.5 C
18.12.2002 15:00 3.5 C 69 % 1025.3 hPa 0.0 l/m 16.4 km/h (3 Bft) O-SO -1.7 C -0.0 C
18.12.2002 16:00 2.8 C 70 % 1026.2 hPa 0.0 l/m 9.2 km/h (2 Bft) O-SO -2.1 C 0.6 C
18.12.2002 17:00 2.4 C 70 % 1026.5 hPa 0.0 l/m 11.2 km/h (2 Bft) O -2.5 C -0.4 C
18.12.2002 18:00 1.9 C 71 % 1027.3 hPa 0.0 l/m 6.1 km/h (2 Bft) O-NO -2.7 C 0.4 C
18.12.2002 19:00 1.5 C 74 % 1027.4 hPa 0.0 l/m 3.6 km/h (1 Bft) NO -2.6 C 0.6 C
18.12.2002 20:00 1.2 C 76 % 1027.8 hPa 0.0 l/m 3.9 km/h (1 Bft) O -2.6 C 0.3 C
18.12.2002 21:00 1.0 C 77 % 1028.4 hPa 0.0 l/m 2.4 km/h (1 Bft) O -2.6 C 0.5 C
18.12.2002 22:00 0.9 C 77 % 1029.6 hPa 0.0 l/m 2.5 km/h (1 Bft) O -2.7 C 0.5 C
18.12.2002 23:00 0.9 C 77 % 1030.6 hPa 0.0 l/m 2.2 km/h (1 Bft) O-SO -2.6 C 0.3 C
19.12.2002 00:00 0.8 C 77 % 1030.6 hPa 0.0 l/m 2.4 km/h (1 Bft) O -2.8 C 0.3 C
19.12.2002 01:00 0.6 C 76 % 1030.2 hPa 0.0 l/m 6.2 km/h (2 Bft) O-NO -3.1 C -1.0 C
19.12.2002 02:00 0.6 C 74 % 1030.1 hPa 0.0 l/m 2.6 km/h (1 Bft) O -3.4 C -0.0 C
19.12.2002 03:00 0.5 C 74 % 1029.7 hPa 0.0 l/m 4.0 km/h (1 Bft) O -3.6 C -0.6 C
19.12.2002 04:00 0.3 C 75 % 1029.6 hPa 0.0 l/m 2.5 km/h (1 Bft) O-NO -3.6 C -0.2 C
19.12.2002 05:00 0.2 C 74 % 1029.6 hPa 0.0 l/m 5.3 km/h (1 Bft) O -3.8 C -1.1 C
19.12.2002 06:00 0.1 C 73 % 1029.7 hPa 0.0 l/m 7.9 km/h (2 Bft) O-SO -4.1 C -2.3 C
19.12.2002 07:00 -0.1 C 72 % 1030.6 hPa 0.0 l/m 5.5 km/h (1 Bft) O-SO -4.5 C -1.3 C
19.12.2002 08:00 -0.2 C 72 % 1030.5 hPa 0.0 l/m 1.2 km/h (1 Bft) O-NO -4.6 C -0.3 C
19.12.2002 09:00 0.0 C 72 % 1030.6 hPa 0.0 l/m 2.9 km/h (1 Bft) O -4.4 C -0.7 C
19.12.2002 10:00 0.2 C 71 % 1030.6 hPa 0.0 l/m 2.1 km/h (1 Bft) O -4.3 C -0.3 C
19.12.2002 11:00 0.4 C 71 % 1030.6 hPa 0.0 l/m 5.3 km/h (1 Bft) O -4.2 C -1.2 C
19.12.2002 12:00 0.6 C 70 % 1030.2 hPa 0.0 l/m 2.9 km/h (1 Bft) O-NO -4.1 C -0.0 C
19.12.2002 13:00 0.4 C 71 % 1029.6 hPa 0.0 l/m 5.1 km/h (1 Bft) O-SO -4.1 C -1.0 C
19.12.2002 14:00 0.5 C 71 % 1028.7 hPa 0.0 l/m 5.7 km/h (1 Bft) O-SO -4.1 C -1.1 C
19.12.2002 15:00 0.4 C 71 % 1028.6 hPa 0.0 l/m 0.2 km/h (0 Bft) N -4.2 C 0.4 C
19.12.2002 16:00 0.2 C 72 % 1028.6 hPa 0.0 l/m 1.3 km/h (1 Bft) O-SO -4.2 C -0.1 C
19.12.2002 17:00 0.1 C 74 % 1028.6 hPa 0.0 l/m 1.4 km/h (1 Bft) O-SO -4.0 C -0.3 C
19.12.2002 18:00 0.1 C 73 % 1028.5 hPa 0.0 l/m 0.0 km/h (0 Bft) N -4.2 C 0.1 C
19.12.2002 19:00 0.1 C 73 % 1028.6 hPa 0.0 l/m 0.0 km/h (0 Bft) N -4.1 C 0.1 C
19.12.2002 20:00 0.1 C 75 % 1028.6 hPa 0.0 l/m 0.0 km/h (0 Bft) N -3.8 C 0.1 C
19.12.2002 21:00 -0.0 C 75 % 1027.9 hPa 0.0 l/m 0.0 km/h (0 Bft) N -3.9 C -0.0 C
19.12.2002 22:00 -0.1 C 77 % 1027.5 hPa 0.0 l/m 0.0 km/h (0 Bft) N -3.6 C -0.1 C
19.12.2002 23:00 -0.1 C 77 % 1027.5 hPa 0.0 l/m 0.0 km/h (0 Bft) N -3.6 C -0.1 C
20.12.2002 00:00 -0.0 C 79 % 1027.5 hPa 0.0 l/m 0.0 km/h (0 Bft) N -3.2 C -0.0 C
20.12.2002 01:00 0.1 C 81 % 1027.5 hPa 0.0 l/m 2.3 km/h (1 Bft) O-SO -2.8 C -0.6 C
20.12.2002 02:00 0.5 C 80 % 1027.5 hPa 0.0 l/m 10.5 km/h (2 Bft) SO -2.6 C -2.6 C
20.12.2002 03:00 0.6 C 79 % 1026.9 hPa 0.0 l/m 9.1 km/h (2 Bft) SO -2.5 C -2.0 C
20.12.2002 04:00 0.8 C 79 % 1026.5 hPa 0.0 l/m 13.3 km/h (3 Bft) SO -2.5 C -3.0 C
20.12.2002 05:00 0.8 C 79 % 1026.5 hPa 0.0 l/m 12.5 km/h (3 Bft) SO -2.4 C -2.8 C
20.12.2002 06:00 0.9 C 80 % 1026.5 hPa 0.0 l/m 9.0 km/h (2 Bft) O-SO -2.2 C -1.7 C
20.12.2002 07:00 1.1 C 79 % 1026.5 hPa 0.0 l/m 10.8 km/h (2 Bft) SO -2.2 C -2.1 C
20.12.2002 08:00 1.2 C 79 % 1026.5 hPa 0.0 l/m 7.6 km/h (2 Bft) O-SO -2.0 C -0.9 C
20.12.2002 09:00 1.6 C 78 % 1026.5 hPa 0.0 l/m 5.4 km/h (1 Bft) O-SO -1.8 C 0.2 C
20.12.2002 10:00 2.5 C 75 % 1026.5 hPa 0.0 l/m 5.4 km/h (1 Bft) O-SO -1.5 C 1.3 C
20.12.2002 11:00 3.3 C 72 % 1026.0 hPa 0.0 l/m 7.0 km/h (2 Bft) O-SO -1.2 C 1.7 C
20.12.2002 12:00 3.9 C 70 % 1025.4 hPa 0.0 l/m 5.3 km/h (1 Bft) S-SO -1.2 C 2.8 C
20.12.2002 13:00 4.2 C 69 % 1024.5 hPa 0.0 l/m 3.3 km/h (1 Bft) O-SO -1.0 C 3.6 C
20.12.2002 14:00 4.2 C 72 % 1024.4 hPa 0.0 l/m 0.8 km/h (0 Bft) S -0.3 C 4.1 C
20.12.2002 15:00 4.0 C 77 % 1024.4 hPa 0.0 l/m 3.9 km/h (1 Bft) O-SO 0.3 C 3.2 C
20.12.2002 16:00 3.7 C 78 % 1024.4 hPa 0.0 l/m 2.6 km/h (1 Bft) S 0.2 C 3.3 C
20.12.2002 17:00 3.7 C 79 % 1023.7 hPa 0.0 l/m 2.3 km/h (1 Bft) O-SO 0.4 C 3.3 C
20.12.2002 18:00 3.9 C 78 % 1023.4 hPa 0.0 l/m 0.6 km/h (0 Bft) N-NO 0.5 C 3.9 C
20.12.2002 19:00 3.8 C 81 % 1023.4 hPa 0.0 l/m 2.2 km/h (1 Bft) S 0.8 C 3.4 C
20.12.2002 20:00 3.1 C 92 % 1023.4 hPa 0.6 l/m 0.9 km/h (0 Bft) SO 1.9 C 2.9 C
20.12.2002 21:00 3.4 C 94 % 1023.4 hPa 0.3 l/m 2.3 km/h (1 Bft) S 2.5 C 3.1 C
20.12.2002 22:00 3.4 C 95 % 1023.4 hPa 0.6 l/m 0.9 km/h (0 Bft) O-SO 2.7 C 3.3 C
20.12.2002 23:00 3.6 C 96 % 1023.4 hPa 0.3 l/m 1.0 km/h (0 Bft) O-SO 3.0 C 3.6 C
21.12.2002 00:00 3.8 C 96 % 1023.4 hPa 0.3 l/m 1.6 km/h (1 Bft) W 3.2 C 3.6 C
21.12.2002 01:00 4.0 C 96 % 1023.4 hPa 0.0 l/m 1.0 km/h (0 Bft) W 3.4 C 3.9 C
21.12.2002 02:00 4.2 C 96 % 1023.4 hPa 0.0 l/m 2.3 km/h (1 Bft) SO 3.5 C 3.7 C
21.12.2002 03:00 4.3 C 91 % 1022.5 hPa 0.0 l/m 2.5 km/h (1 Bft) SO 2.9 C 4.1 C
21.12.2002 04:00 4.4 C 87 % 1022.3 hPa 0.0 l/m 0.7 km/h (0 Bft) S-SW 2.5 C 4.4 C
21.12.2002 05:00 4.5 C 87 % 1021.3 hPa 0.0 l/m 1.2 km/h (1 Bft) O-SO 2.5 C 4.3 C
21.12.2002 06:00 4.5 C 90 % 1021.3 hPa 0.6 l/m 0.6 km/h (0 Bft) SO 2.9 C 4.4 C
21.12.2002 07:00 4.4 C 94 % 1021.3 hPa 1.5 l/m 0.4 km/h (0 Bft) SO 3.5 C 4.4 C
21.12.2002 08:00 4.6 C 96 % 1021.3 hPa 0.3 l/m 2.7 km/h (1 Bft) SO 4.0 C 4.2 C
21.12.2002 09:00 5.1 C 94 % 1021.4 hPa 0.0 l/m 5.3 km/h (1 Bft) SW 4.2 C 4.2 C
21.12.2002 10:00 5.3 C 93 % 1022.3 hPa 0.0 l/m 6.3 km/h (2 Bft) SO 4.3 C 4.2 C
21.12.2002 11:00 5.6 C 93 % 1022.3 hPa 1.2 l/m 4.6 km/h (1 Bft) SO 4.6 C 4.7 C
21.12.2002 12:00 5.9 C 95 % 1021.7 hPa 0.3 l/m 5.0 km/h (1 Bft) SO 5.1 C 5.0 C
21.12.2002 13:00 6.1 C 94 % 1021.3 hPa 0.0 l/m 1.6 km/h (1 Bft) NO 5.2 C 5.9 C
21.12.2002 14:00 6.4 C 96 % 1021.3 hPa 0.6 l/m 6.3 km/h (2 Bft) SO 5.8 C 5.3 C
21.12.2002 15:00 6.4 C 97 % 1021.9 hPa 0.6 l/m 5.4 km/h (1 Bft) SO 5.9 C 5.5 C
21.12.2002 16:00 6.3 C 98 % 1022.3 hPa 0.3 l/m 8.6 km/h (2 Bft) SO 6.0 C 4.7 C
21.12.2002 17:00 6.4 C 99 % 1022.3 hPa 0.9 l/m 3.7 km/h (1 Bft) SO 6.3 C 5.8 C
21.12.2002 18:00 6.5 C 100 % 1022.3 hPa 0.3 l/m 6.4 km/h (2 Bft) SO 6.5 C 5.3 C
21.12.2002 19:00 6.4 C 100 % 1022.3 hPa 0.0 l/m 4.8 km/h (1 Bft) SO 6.4 C 5.6 C
21.12.2002 20:00 6.4 C 99 % 1022.3 hPa 0.0 l/m 4.8 km/h (1 Bft) SO 6.3 C 5.7 C
21.12.2002 21:00 6.5 C 99 % 1022.8 hPa 0.0 l/m 8.2 km/h (2 Bft) SO 6.3 C 4.9 C
21.12.2002 22:00 6.5 C 98 % 1022.3 hPa 0.0 l/m 5.8 km/h (2 Bft) SO 6.2 C 5.5 C
21.12.2002 23:00 6.4 C 97 % 1022.3 hPa 0.0 l/m 4.7 km/h (1 Bft) O-SO 5.9 C 5.5 C
22.12.2002 00:00 6.0 C 97 % 1021.7 hPa 0.0 l/m 3.6 km/h (1 Bft) O-SO 5.6 C 5.4 C
22.12.2002 01:00 6.0 C 98 % 1021.3 hPa 0.0 l/m 0.9 km/h (0 Bft) O-SO 5.7 C 5.9 C
22.12.2002 02:00 6.1 C 99 % 1021.3 hPa 0.0 l/m 1.7 km/h (1 Bft) O-SO 5.9 C 5.8 C
22.12.2002 03:00 6.2 C 99 % 1020.8 hPa 0.0 l/m 0.1 km/h (0 Bft) N 6.1 C 6.2 C
22.12.2002 04:00 6.3 C 99 % 1020.2 hPa 0.0 l/m 0.1 km/h (0 Bft) N 6.1 C 6.3 C
22.12.2002 05:00 6.3 C 99 % 1019.9 hPa 0.0 l/m 0.7 km/h (0 Bft) O-SO 6.1 C 6.2 C
22.12.2002 06:00 6.1 C 98 % 1019.2 hPa 0.0 l/m 1.3 km/h (1 Bft) SO 5.9 C 6.0 C
22.12.2002 07:00 6.1 C 97 % 1019.2 hPa 0.0 l/m 5.3 km/h (1 Bft) SO 5.7 C 5.1 C
22.12.2002 08:00 6.1 C 95 % 1019.2 hPa 0.0 l/m 2.8 km/h (1 Bft) O-SO 5.4 C 5.7 C
22.12.2002 09:00 6.1 C 96 % 1019.2 hPa 0.6 l/m 3.3 km/h (1 Bft) O-SO 5.5 C 5.5 C
22.12.2002 10:00 6.2 C 96 % 1018.2 hPa 1.5 l/m 2.4 km/h (1 Bft) O 5.6 C 5.9 C
22.12.2002 11:00 6.5 C 96 % 1017.7 hPa 0.6 l/m 9.6 km/h (2 Bft) SO 5.8 C 4.7 C
22.12.2002 12:00 6.7 C 94 % 1016.4 hPa 0.6 l/m 11.5 km/h (2 Bft) SO 5.9 C 4.8 C
22.12.2002 13:00 7.5 C 94 % 1014.7 hPa 0.9 l/m 16.2 km/h (3 Bft) SO 6.7 C 4.9 C
22.12.2002 14:00 8.1 C 93 % 1014.0 hPa 0.3 l/m 8.5 km/h (2 Bft) SO 7.1 C 6.7 C
22.12.2002 15:00 8.7 C 94 % 1013.2 hPa 0.3 l/m 9.6 km/h (2 Bft) N-NW 7.8 C 7.4 C
22.12.2002 16:00 9.2 C 92 % 1013.0 hPa 0.0 l/m 13.9 km/h (3 Bft) S-SW 8.0 C 7.2 C
22.12.2002 17:00 8.5 C 93 % 1013.0 hPa 3.0 l/m 4.0 km/h (1 Bft) S 7.4 C 7.9 C
22.12.2002 18:00 9.2 C 97 % 1013.0 hPa 2.1 l/m 5.3 km/h (1 Bft) S-SO 8.8 C 8.5 C
22.12.2002 19:00 9.6 C 96 % 1013.2 hPa 0.9 l/m 7.9 km/h (2 Bft) W-NW 9.0 C 8.6 C
22.12.2002 20:00 9.8 C 95 % 1014.0 hPa 1.5 l/m 6.0 km/h (2 Bft) SO 9.2 C 9.2 C
22.12.2002 21:00 9.9 C 96 % 1014.6 hPa 1.2 l/m 6.9 km/h (2 Bft) W-NW 9.3 C 9.2 C
22.12.2002 22:00 11.1 C 95 % 1015.1 hPa 0.0 l/m 44.0 km/h (6 Bft) W-NW 10.4 C 10.8 C
22.12.2002 23:00 11.4 C 91 % 1015.1 hPa 0.0 l/m 47.9 km/h (6 Bft) W-NW 9.9 C 11.4 C
Min-Datum _ 19.12.02 18.12.02 22.12.02 - 16.12.02 - 19.12.02 20.12.02
_ Min-Zeit 08:20 13:43 15:11 - 00:02 - 07:53 04:48
Minimum _ -0.3 C 64 % 1013.0 hPa - 0.0 km/h (0 Bft) - -4.8 C -4.8 C
Max-Datum _ 22.12.02 16.12.02 18.12.02 16.12.02 22.12.02 - 22.12.02 22.12.02
_ Max-Zeit 22:51 00:02 22:28 22:00 22:27 - 22:39 22:51
Maximum _ 11.8 C 100 % 1030.6 hPa 3.0 l/m 69.4 km/h
W-NW (8 Bft)
- 10.9 C 11.8 C
Durchschnitt _ 4.3 C 86 % 1021.6 hPa #45.9 l/m 4.7 km/h (1 Bft) SO 2.1 C 3.5 C

Durchschnitt Minimum Temp.4.0 C
Durchschnitt Maximum Temp.4.5 C
© Kaiko 2002